M I D A S
Marine Information and Data Acquisition System
Tripno 1468 of the Zeeleeuw from 2008-04-29 07:10:44 to 2008-04-29 11:47:07
Back to CruiseResearch ActivitiesStationsMapUnderway DataData graphs

EquipmentUnitsComment
TimeDGPSUTC
LatitudeDGPSDM.mWGS84
LongitudeDGPSDM.mWGS84
HeadingGyrodeg 
SOGDGPSknotsSpeed over ground
COGDGPSdegCourse over ground
DepthEcho soundermeters200 kHz
Missing or incorrect values are displayed as -999
Navigation data collected by the RV Zeeleeuw from 2008-04-29 07:11:35 to 2008-04-29 11:57:39
Time Latitude Longitude Heading SOG COG Depth
2008-04-29 07:12:40 51°13.681 2°55.893 106 4.1 290 -999
2008-04-29 07:13:41 51°13.692 2°55.794 83.9 3.1 272 -999
2008-04-29 07:14:40 51°13.69 2°55.742 61.3 1.2 261 -999
2008-04-29 07:15:40 51°13.698 2°55.735 21.7 1.7 6 14.9
2008-04-29 07:16:41 51°13.765 2°55.694 335.3 6 334 12.2
2008-04-29 07:17:40 51°13.859 2°55.62 335 6.5 333 12.2
2008-04-29 07:18:41 51°13.953 2°55.547 335.3 5.9 335 -999
2008-04-29 07:19:40 51°14.039 2°55.482 335.1 5.7 334 -999
2008-04-29 07:20:41 51°14.125 2°55.413 332 5.8 332 12.7
2008-04-29 07:21:40 51°14.232 2°55.312 327.1 8.2 324 12.8
2008-04-29 07:22:40 51°14.321 2°55.148 307.4 8.3 307 12.3
2008-04-29 07:23:40 51°14.42 2°54.948 308.5 10.9 307 12.5
2008-04-29 07:24:40 51°14.53 2°54.699 301.1 11.7 302 12.3
2008-04-29 07:25:40 51°14.621 2°54.421 292.4 12 294 12.1
2008-04-29 07:26:40 51°14.664 2°54.116 275.4 11.7 278 12.8
2008-04-29 07:27:40 51°14.706 2°53.81 283.6 11.9 286 12.3
2008-04-29 07:28:40 51°14.76 2°53.504 284.6 12.2 285 12
2008-04-29 07:29:40 51°14.811 2°53.19 281.3 12.2 283 12.1
2008-04-29 07:30:40 51°14.859 2°52.877 282.2 12.2 284 11.7
2008-04-29 07:31:40 51°14.911 2°52.567 282.6 12.1 285 11.9
2008-04-29 07:32:40 51°14.964 2°52.259 282.9 12.1 286 12.3
2008-04-29 07:33:40 51°15.018 2°51.953 283.6 12 285 12.6
2008-04-29 07:34:40 51°15.072 2°51.645 284.1 12.1 285 13.4
2008-04-29 07:35:39 51°15.126 2°51.343 284 12 286 13.8
2008-04-29 07:36:40 51°15.183 2°51.033 283.9 12 286 14.1
2008-04-29 07:37:39 51°15.238 2°50.735 284.8 11.9 287 14.4
2008-04-29 07:38:39 51°15.311 2°50.439 291.6 12 294 14.5
2008-04-29 07:39:39 51°15.378 2°50.141 285.2 12 287 14.7
2008-04-29 07:40:39 51°15.44 2°49.836 285.4 12.1 288 14.6
2008-04-29 07:41:40 51°15.501 2°49.527 285.8 12 287 14.8
2008-04-29 07:42:39 51°15.562 2°49.228 288 12.1 289 14
2008-04-29 07:43:40 51°15.632 2°48.92 288.4 12.2 291 12.3
2008-04-29 07:44:39 51°15.698 2°48.621 286 12.1 287 12.7
2008-04-29 07:45:39 51°15.754 2°48.314 285.2 12 286 13.7
2008-04-29 07:46:39 51°15.811 2°48.012 285.1 11.9 288 15.7
2008-04-29 07:47:39 51°15.872 2°47.71 286.3 11.9 288 17
2008-04-29 07:48:39 51°15.934 2°47.411 286.5 11.9 288 17.9
2008-04-29 07:49:39 51°15.998 2°47.112 287.6 11.9 289 18.2
2008-04-29 07:50:40 51°16.063 2°46.809 285.7 11.9 289 16.7
2008-04-29 07:51:39 51°16.133 2°46.516 288.1 12 290 14.6
2008-04-29 07:52:40 51°16.198 2°46.21 286.2 12 288 12
2008-04-29 07:53:39 51°16.258 2°45.912 284.9 12 288 12.2
2008-04-29 07:54:40 51°16.323 2°45.604 285.9 12.1 288 12.1
2008-04-29 07:55:39 51°16.393 2°45.309 289.3 12.1 292 12.6
2008-04-29 07:56:40 51°16.486 2°45.015 298.2 12.3 301 13
2008-04-29 07:57:40 51°16.603 2°44.745 302.4 12.4 305 13.2
2008-04-29 07:58:39 51°16.717 2°44.477 300.7 12.4 302 15.1
2008-04-29 07:59:40 51°16.83 2°44.193 301.9 12.5 303 16.6
2008-04-29 08:00:39 51°16.94 2°43.92 301.3 12.5 303 16.6
2008-04-29 08:01:40 51°17.051 2°43.637 300.2 12.4 303 15.9
2008-04-29 08:02:39 51°17.159 2°43.364 299.8 12.3 301 15.6
2008-04-29 08:03:39 51°17.267 2°43.087 301.1 12.3 303 14.2
2008-04-29 08:04:39 51°17.383 2°42.819 303.4 12.2 304 12
2008-04-29 08:05:39 51°17.499 2°42.549 303.3 12.5 306 22.5
2008-04-29 08:06:38 51°17.616 2°42.281 303.8 12.6 306 24.9
2008-04-29 08:07:36 51°17.738 2°42.019 302.8 12.7 306 25.5
2008-04-29 08:08:36 51°17.865 2°41.749 302.8 12.7 306 25.3
2008-04-29 08:09:36 51°17.981 2°41.473 302.5 12.4 304 24.6
2008-04-29 08:10:36 51°18.095 2°41.199 300.6 12.4 303 22
2008-04-29 08:11:36 51°18.208 2°40.926 302.2 12.2 304 18.9
2008-04-29 08:12:36 51°18.325 2°40.66 303.3 12.3 304 17.7
2008-04-29 08:13:36 51°18.438 2°40.391 301.2 12.2 304 17.1
2008-04-29 08:14:36 51°18.554 2°40.126 302.8 12.4 305 25.5
2008-04-29 08:15:36 51°18.677 2°39.86 303.7 12.5 307 26.5
2008-04-29 08:16:36 51°18.8 2°39.591 302.9 12.6 306 26.1
2008-04-29 08:17:36 51°18.922 2°39.322 303.3 12.4 305 27.2
2008-04-29 08:18:36 51°19.035 2°39.048 302.6 12.4 304 29.1
2008-04-29 08:19:36 51°19.152 2°38.777 302 12.4 304 29.3
2008-04-29 08:20:36 51°19.265 2°38.503 302.9 12.5 306 27.7
2008-04-29 08:21:36 51°19.382 2°38.227 302.7 12.5 304 24.7
2008-04-29 08:22:36 51°19.496 2°37.952 301.8 12.4 303 23.3
2008-04-29 08:23:36 51°19.612 2°37.679 302.2 12.4 305 21.2
2008-04-29 08:24:36 51°19.728 2°37.408 300.6 12.3 304 22
2008-04-29 08:25:36 51°19.848 2°37.142 303.4 12.4 307 22.6
2008-04-29 08:26:36 51°19.949 2°36.957 308.9 7 314 22.8
2008-04-29 08:27:36 51°20.007 2°36.858 291.5 2.6 310 23.2
2008-04-29 08:28:36 51°20.025 2°36.82 265.4 1.2 318 23.1
2008-04-29 08:29:36 51°20.043 2°36.828 268.1 1.5 40 23.2
2008-04-29 08:30:40 51°20.061 2°36.858 291.3 1.3 48 -999
2008-04-29 08:31:38 51°20.076 2°36.877 301.2 1.2 35 23.9
2008-04-29 08:32:37 51°20.09 2°36.897 309.8 1.2 52 22.7
2008-04-29 08:33:36 51°20.1 2°36.919 324.2 1 40 24.3
2008-04-29 08:34:36 51°20.115 2°36.932 333.8 1.1 23 23.6
2008-04-29 08:35:36 51°20.135 2°36.94 334 1.3 9 23.5
2008-04-29 08:36:36 51°20.157 2°36.944 328.2 1.4 6 21
2008-04-29 08:37:36 51°20.18 2°36.944 321.4 1.3 -999 22.7
2008-04-29 08:38:36 51°20.202 2°36.941 309.7 1.3 353 23.4
2008-04-29 08:39:36 51°20.224 2°36.938 297 1.2 355 22.7
2008-04-29 08:40:36 51°20.244 2°36.933 282.8 1.3 344 23
2008-04-29 08:41:36 51°20.246 2°36.889 228 2.4 237 23
2008-04-29 08:42:36 51°20.199 2°36.874 173.4 3.8 174 22.9
2008-04-29 08:43:36 51°20.129 2°36.9 169 4.2 166 23.3
2008-04-29 08:44:36 51°20.082 2°36.917 176 1.7 166 26.5
2008-04-29 08:45:36 51°20.063 2°36.929 165.7 0.9 145 25.1
2008-04-29 08:46:36 51°20.055 2°36.945 158.1 0.5 105 24.6
2008-04-29 08:47:36 51°20.062 2°36.956 161.5 0.8 25 24.3
2008-04-29 08:48:36 51°20.074 2°36.965 164.3 0.7 24 24.3
2008-04-29 08:49:36 51°20.088 2°36.969 182.3 0.5 5 24
2008-04-29 08:50:36 51°20.08 2°36.953 212.3 1.7 229 25.1
2008-04-29 08:51:36 51°20.069 2°36.923 215.4 1 251 25.2
2008-04-29 08:52:36 51°20.073 2°36.909 213.6 0.8 342 25.7
2008-04-29 08:53:36 51°20.093 2°36.912 235.2 1.7 25 22.9
2008-04-29 08:54:39 51°20.117 2°36.94 261.9 1.8 43 23.3
2008-04-29 08:55:38 51°20.135 2°36.965 276.8 1.4 39 23.2
2008-04-29 08:56:37 51°20.152 2°36.986 287.8 1.3 32 22.3
2008-04-29 08:57:36 51°20.168 2°37.001 297.8 1.1 27 23.3
2008-04-29 08:58:36 51°20.186 2°37.012 300.5 1.2 17 23.3
2008-04-29 08:59:36 51°20.205 2°37.018 298.9 1.2 6 21.8
2008-04-29 09:00:36 51°20.224 2°37.018 287.2 1.1 359 23.2
2008-04-29 09:01:36 51°20.242 2°37.018 275.1 1.1 359 23.4
2008-04-29 09:02:36 51°20.259 2°37.019 263.7 1.1 2 23.5
2008-04-29 09:03:36 51°20.277 2°37.02 259.1 1.1 6 23.3
2008-04-29 09:04:36 51°20.296 2°37.023 257.7 1.1 6 21.8
2008-04-29 09:05:36 51°20.314 2°37.026 260.2 1.1 7 23
2008-04-29 09:06:36 51°20.334 2°37.031 264.1 1.3 9 24.1
2008-04-29 09:07:36 51°20.354 2°37.037 269.1 1.2 11 21.8
2008-04-29 09:08:36 51°20.373 2°37.042 273.3 1.1 8 23.2
2008-04-29 09:09:36 51°20.392 2°37.047 272.5 1.2 11 24
2008-04-29 09:10:36 51°20.411 2°37.052 271.9 1.2 13 24
2008-04-29 09:11:36 51°20.43 2°37.059 275 1.1 14 23.4
2008-04-29 09:12:36 51°20.45 2°37.063 275.8 1.2 350 23
2008-04-29 09:13:36 51°20.456 2°37.026 231.2 2.1 245 24.1
2008-04-29 09:14:36 51°20.421 2°37.002 177 3 178 22.9
2008-04-29 09:15:36 51°20.36 2°37.004 183.6 4 183 23.5
2008-04-29 09:16:36 51°20.294 2°36.989 188.7 3.5 191 23.8
2008-04-29 09:17:36 51°20.247 2°36.967 194.1 2.6 198 23
2008-04-29 09:18:36 51°20.212 2°36.945 200.2 2 212 23.5
2008-04-29 09:19:36 51°20.202 2°36.912 236.1 0.8 285 23.3
2008-04-29 09:20:36 51°20.212 2°36.897 248 0.9 321 23.5
2008-04-29 09:21:36 51°20.225 2°36.885 245.4 1.1 339 23.4
2008-04-29 09:22:36 51°20.241 2°36.877 247.4 1 344 23.5
2008-04-29 09:23:36 51°20.257 2°36.872 246.4 1 352 23
2008-04-29 09:24:36 51°20.275 2°36.868 247.8 1 354 21.9
2008-04-29 09:25:36 51°20.293 2°36.865 251.3 1.1 354 22.8
2008-04-29 09:26:36 51°20.309 2°36.863 254.7 1 356 23.2
2008-04-29 09:27:39 51°20.327 2°36.859 255.9 1 339 23.1
2008-04-29 09:28:38 51°20.318 2°36.821 208.9 2.8 209 23
2008-04-29 09:29:36 51°20.257 2°36.828 171.2 3.8 170 23.6
2008-04-29 09:30:36 51°20.214 2°36.849 163.1 1.9 159 23.2
2008-04-29 09:31:36 51°20.195 2°36.865 162.9 0.7 144 21.9
2008-04-29 09:32:36 51°20.195 2°36.873 159.4 0.4 39 22.3
2008-04-29 09:33:36 51°20.205 2°36.879 148.5 0.9 16 23
2008-04-29 09:34:36 51°20.223 2°36.883 127.5 1.1 2 23.5
2008-04-29 09:35:36 51°20.241 2°36.884 103.3 1.1 31 23.6
2008-04-29 09:36:36 51°20.246 2°36.929 126.6 2.3 110 22
2008-04-29 09:37:36 51°20.205 2°36.96 174.2 2.9 173 23.4
2008-04-29 09:38:36 51°20.179 2°36.959 186.1 0.3 229 22.4
2008-04-29 09:39:36 51°20.183 2°36.949 215.9 0.7 316 22.5
2008-04-29 09:40:36 51°20.195 2°36.935 246.3 1 330 23.1
2008-04-29 09:41:37 51°20.211 2°36.924 264.1 1.1 342 23.1
2008-04-29 09:42:36 51°20.229 2°36.917 272.4 1.1 347 23.1
2008-04-29 09:43:37 51°20.218 2°36.862 212.3 3.7 214 23.2
2008-04-29 09:44:36 51°20.198 2°36.852 164.1 1.3 342 21.5
2008-04-29 09:45:40 51°20.2 2°36.859 128.5 0.4 86 -999
2008-04-29 09:46:40 51°20.212 2°36.873 100.7 1 25 23.1
2008-04-29 09:47:38 51°20.229 2°36.881 84.7 1.1 12 23.1
2008-04-29 09:48:36 51°20.248 2°36.884 77 1.2 2 22.2
2008-04-29 09:49:36 51°20.267 2°36.886 74.6 1.1 1 22
2008-04-29 09:50:36 51°20.286 2°36.885 75.3 1.1 -999 22.5
2008-04-29 09:51:37 51°20.305 2°36.884 75.2 1.1 358 22.9
2008-04-29 09:52:36 51°20.323 2°36.883 80.3 1.2 357 22.4
2008-04-29 09:53:36 51°20.341 2°36.881 81.4 1.1 356 22.5
2008-04-29 09:54:36 51°20.353 2°36.915 110.5 2.1 89 23.8
2008-04-29 09:55:36 51°20.336 2°36.965 155.6 2.3 149 23.4
2008-04-29 09:56:36 51°20.307 2°36.975 178.7 1.3 179 23.7
2008-04-29 09:57:36 51°20.291 2°36.967 187.9 0.8 213 23.5
2008-04-29 09:58:36 51°20.283 2°36.953 193 0.7 245 23.2
2008-04-29 09:59:36 51°20.28 2°36.936 194.5 0.6 265 23.1
2008-04-29 10:00:37 51°20.281 2°36.922 193.5 0.6 287 23.3
2008-04-29 10:01:36 51°20.284 2°36.907 193.4 0.6 289 23
2008-04-29 10:02:37 51°20.286 2°36.891 193 0.7 242 22.7
2008-04-29 10:03:36 51°20.267 2°36.874 186.9 1.7 201 21.2
2008-04-29 10:04:36 51°20.249 2°36.859 187.2 0.8 225 23.2
2008-04-29 10:05:36 51°20.241 2°36.845 181.6 0.5 251 23.3
2008-04-29 10:06:36 51°20.236 2°36.839 161.4 0.5 164 23.3
2008-04-29 10:07:36 51°20.238 2°36.846 128.4 0.7 21 23.3
2008-04-29 10:08:36 51°20.253 2°36.85 103.7 1 2 23.3
2008-04-29 10:09:36 51°20.271 2°36.848 83.6 1 351 23
2008-04-29 10:10:36 51°20.277 2°36.894 120.3 2.8 112 22.4
2008-04-29 10:11:37 51°20.235 2°36.921 189.1 2.8 202 21.4
2008-04-29 10:12:37 51°20.219 2°36.868 249.4 2.5 271 23
2008-04-29 10:13:37 51°20.226 2°36.805 265.1 2.4 286 22.3
2008-04-29 10:14:37 51°20.239 2°36.746 278.2 2.4 298 22.4
2008-04-29 10:15:37 51°20.257 2°36.699 279.9 1.8 303 22.7
2008-04-29 10:16:37 51°20.272 2°36.666 269.6 1.3 303 22.6
2008-04-29 10:17:37 51°20.284 2°36.641 258.3 1.1 311 22.6
2008-04-29 10:18:37 51°20.297 2°36.622 253.4 1 321 22.5
2008-04-29 10:19:37 51°20.31 2°36.607 254.3 1 326 22.2
2008-04-29 10:20:37 51°20.325 2°36.591 255.1 1.2 320 22
2008-04-29 10:21:37 51°20.325 2°36.548 223.3 2.4 239 21.3
2008-04-29 10:22:37 51°20.283 2°36.54 147.8 2.5 148 20.9
2008-04-29 10:23:37 51°20.277 2°36.561 109.7 0.8 1 21.3
2008-04-29 10:24:37 51°20.291 2°36.561 79.3 0.9 357 21.9
2008-04-29 10:25:37 51°20.308 2°36.559 69.8 1 353 21.9
2008-04-29 10:26:37 51°20.324 2°36.557 77.2 1 351 21.5
2008-04-29 10:27:37 51°20.339 2°36.552 74.2 1 349 21.3
2008-04-29 10:28:37 51°20.355 2°36.548 72.9 0.9 350 21.2
2008-04-29 10:29:37 51°20.371 2°36.543 74.4 0.9 350 21.4
2008-04-29 10:30:37 51°20.387 2°36.537 77 1 345 21.6
2008-04-29 10:31:37 51°20.402 2°36.53 76.7 1 343 21.4
2008-04-29 10:32:37 51°20.413 2°36.559 108 2.6 100 21.6
2008-04-29 10:33:37 51°20.368 2°36.641 136.9 6.4 136 21.7
2008-04-29 10:34:37 51°20.258 2°36.828 131.6 11.4 132 22.8
2008-04-29 10:35:37 51°20.127 2°37.057 131.1 11.7 132 22.2
2008-04-29 10:36:37 51°19.996 2°37.291 128.3 11.8 129 20.2
2008-04-29 10:37:37 51°19.873 2°37.536 127.3 11.7 129 21.9
2008-04-29 10:38:37 51°19.748 2°37.776 127.9 11.7 130 22.1
2008-04-29 10:39:37 51°19.627 2°38.021 127.7 11.7 129 21.3
2008-04-29 10:40:37 51°19.501 2°38.261 129 11.8 130 23
2008-04-29 10:41:37 51°19.378 2°38.504 127.6 11.8 129 25.9
2008-04-29 10:42:37 51°19.253 2°38.748 128.7 11.9 129 27.9
2008-04-29 10:43:37 51°19.124 2°38.991 128.8 12 131 28.4
2008-04-29 10:44:37 51°18.998 2°39.236 128.9 12 130 26.9
2008-04-29 10:45:37 51°18.874 2°39.483 127.2 11.9 127 25
2008-04-29 10:46:37 51°18.758 2°39.737 126 11.8 126 24.5
2008-04-29 10:47:37 51°18.642 2°39.989 125.7 11.8 128 24.8
2008-04-29 10:48:37 51°18.522 2°40.237 127 11.8 126 22.2
2008-04-29 10:49:37 51°18.403 2°40.481 127.2 11.6 128 15.9
2008-04-29 10:50:37 51°18.286 2°40.728 126.2 11.7 127 19.6
2008-04-29 10:51:37 51°18.168 2°40.973 125.1 11.7 126 16.7
2008-04-29 10:52:37 51°18.051 2°41.222 125.9 11.7 126 21.5
2008-04-29 10:53:37 51°17.936 2°41.469 127.4 11.6 127 23
2008-04-29 10:54:37 51°17.817 2°41.712 127.4 11.5 127 24
2008-04-29 10:55:37 51°17.699 2°41.953 126.3 11.5 129 24.1
2008-04-29 10:56:37 51°17.581 2°42.196 126.2 11.6 128 23.6
2008-04-29 10:57:37 51°17.459 2°42.437 127.2 11.6 130 21.9
2008-04-29 10:58:37 51°17.339 2°42.677 126.7 11.4 129 12
2008-04-29 10:59:37 51°17.222 2°42.911 125.5 11.2 128 10.3
2008-04-29 11:00:37 51°17.108 2°43.155 122.6 11.5 124 11.3
2008-04-29 11:01:37 51°16.997 2°43.405 125.1 11.7 127 14.4
2008-04-29 11:02:37 51°16.871 2°43.636 132.1 11.6 135 14.5
2008-04-29 11:03:37 51°16.727 2°43.843 136.5 11.7 138 15.1
2008-04-29 11:04:37 51°16.582 2°44.048 133.5 11.6 138 14.5
2008-04-29 11:05:37 51°16.431 2°44.248 139.3 11.8 141 12.7
2008-04-29 11:06:37 51°16.283 2°44.446 137.5 11.6 139 11.5
2008-04-29 11:07:37 51°16.131 2°44.639 140 11.8 144 10.5
2008-04-29 11:08:37 51°15.997 2°44.857 122.5 11.4 121 10.9
2008-04-29 11:09:37 51°15.916 2°45.134 112.4 11.5 113 12.4
2008-04-29 11:10:37 51°15.846 2°45.419 106.5 11.5 105 12.6
2008-04-29 11:11:37 51°15.807 2°45.72 100 11.8 101 15.3
2008-04-29 11:12:37 51°15.761 2°46.019 105.3 11.6 108 16.8
2008-04-29 11:13:37 51°15.705 2°46.314 105.7 11.6 108 17.1
2008-04-29 11:14:37 51°15.652 2°46.609 106.8 11.6 108 16.2
2008-04-29 11:15:37 51°15.595 2°46.902 104.4 11.5 104 15
2008-04-29 11:16:37 51°15.542 2°47.197 105.1 11.5 106 13.6
2008-04-29 11:17:37 51°15.483 2°47.49 106.6 11.6 107 11.7
2008-04-29 11:18:37 51°15.43 2°47.783 103 11.5 102 10.5
2008-04-29 11:19:37 51°15.388 2°48.081 101.5 11.5 102 10
2008-04-29 11:20:37 51°15.342 2°48.379 102.6 11.6 105 10.7
2008-04-29 11:21:37 51°15.29 2°48.676 103.1 11.6 105 12.9
2008-04-29 11:22:37 51°15.239 2°48.974 102.2 11.6 102 12.8
2008-04-29 11:23:37 51°15.203 2°49.275 100.4 11.5 101 12.9
2008-04-29 11:24:37 51°15.167 2°49.578 100.2 11.7 101 12.8
2008-04-29 11:25:37 51°15.135 2°49.82 103.5 7.2 103 12.7
2008-04-29 11:26:37 51°15.114 2°50.069 96.1 11.1 97 12.6
2008-04-29 11:27:37 51°15.09 2°50.371 97.2 11.5 98 12.5
2008-04-29 11:28:37 51°15.062 2°50.675 97.5 11.6 99 12.4
2008-04-29 11:29:37 51°15.032 2°50.977 98.4 11.5 100 12
2008-04-29 11:30:37 51°15.003 2°51.212 101.5 7.5 103 11.8
2008-04-29 11:31:37 51°14.98 2°51.393 100.1 6.7 101 11.5
2008-04-29 11:32:37 51°14.958 2°51.591 99 8.4 99 11.3
2008-04-29 11:33:37 51°14.933 2°51.814 99.2 8.6 100 10.9
2008-04-29 11:34:37 51°14.904 2°52.037 104.2 8.6 106 10.5
2008-04-29 11:35:37 51°14.862 2°52.253 108 8.6 111 10.1
2008-04-29 11:36:37 51°14.799 2°52.508 108.8 11.1 110 9.6
2008-04-29 11:37:37 51°14.733 2°52.79 110.6 11.4 113 9.4
2008-04-29 11:38:37 51°14.655 2°53.067 112 11.4 113 8.8
2008-04-29 11:39:37 51°14.589 2°53.349 108 11.3 109 8.3
2008-04-29 11:40:37 51°14.536 2°53.618 107.3 9.5 108 9.7
2008-04-29 11:41:37 51°14.496 2°53.85 102.6 8.8 102 9.8
2008-04-29 11:42:37 51°14.499 2°54.093 86.1 9.5 85 9.8
2008-04-29 11:43:37 51°14.527 2°54.344 84.1 9.7 82 10.5
2008-04-29 11:44:37 51°14.507 2°54.607 105 9.7 106 10.3
2008-04-29 11:45:37 51°14.445 2°54.807 122.3 8.1 124 10.6
2008-04-29 11:46:37 51°14.38 2°54.997 119.7 8.1 120 10.7
2008-04-29 11:47:37 51°14.305 2°55.174 127.9 7.9 126 9.9
2008-04-29 11:48:37 51°14.237 2°55.305 138.4 6 136 10.7
2008-04-29 11:49:41 51°14.151 2°55.403 149.4 5.9 147 -999
2008-04-29 11:50:41 51°14.065 2°55.487 153 6.3 150 10.7
2008-04-29 11:51:41 51°13.968 2°55.559 161 6.6 159 -999
2008-04-29 11:52:41 51°13.864 2°55.618 163 6.7 160 -999
2008-04-29 11:53:41 51°13.784 2°55.677 150 4.4 141 -999
2008-04-29 11:54:41 51°13.74 2°55.763 131.5 4.1 127 -999
2008-04-29 11:55:40 51°13.697 2°55.853 130.5 4.3 127 7.1
2008-04-29 11:56:40 51°13.67 2°55.933 118.5 2.1 111 6.7
2008-04-29 11:57:38 51°13.666 2°55.95 114.1 0.5 126 6.2